Time,TemperatureF,DewpointF,PressureIn,WindDirection,WindDirectionDegrees,WindSpeedMPH,WindSpeedGustMPH,Humidity,HourlyPrecipIn,Conditions,Clouds,dailyrainin,SoftwareType,DateUTC
2013-08-20 00:29:00,63.9,59.0,29.96,North,0,0.0,0.0,84,0.00,SCT,,0.00,WeatherDisplay:10.37,2013-08-20 04:29:00,
2013-08-20 00:59:00,63.4,58.8,29.96,North,0,0.0,0.0,85,0.00,SCT,,0.00,WeatherDisplay:10.37,2013-08-20 04:59:00,
2013-08-20 01:29:00,63.1,58.8,29.96,North,0,0.0,0.0,86,0.00,CLR,,0.00,WeatherDisplay:10.37,2013-08-20 05:29:00,
2013-08-20 01:59:00,62.7,58.5,29.96,North,0,0.0,0.0,86,0.00,CLR,,0.00,WeatherDisplay:10.37,2013-08-20 05:59:00,
2013-08-20 02:29:00,62.4,58.5,29.96,North,0,0.0,0.0,87,0.00,FEW,,0.00,WeatherDisplay:10.37,2013-08-20 06:29:00,
2013-08-20 02:59:00,61.2,57.6,29.97,North,0,0.0,0.0,88,0.00,FEW,,0.00,WeatherDisplay:10.37,2013-08-20 06:59:00,
2013-08-20 03:29:00,60.4,56.2,29.98,North,0,0.0,0.0,86,0.00,CLR,,0.00,WeatherDisplay:10.37,2013-08-20 07:29:00,
2013-08-20 03:59:00,60.1,56.2,29.97,North,0,0.0,0.0,87,0.00,CLR,,0.00,WeatherDisplay:10.37,2013-08-20 07:59:00,
2013-08-20 04:29:00,59.8,56.2,29.98,North,0,0.0,0.0,88,0.00,CLR,,0.00,WeatherDisplay:10.37,2013-08-20 08:29:00,
2013-08-20 04:59:00,59.5,56.3,29.99,North,0,0.0,0.0,89,0.00,CLR,,0.00,WeatherDisplay:10.37,2013-08-20 08:59:00,
2013-08-20 05:29:00,59.4,56.1,29.99,North,0,0.0,0.0,89,0.00,CLR,,0.00,WeatherDisplay:10.37,2013-08-20 09:29:00,
2013-08-20 05:59:00,59.2,56.0,30.00,North,0,0.0,0.0,89,0.00,CLR,,0.00,WeatherDisplay:10.37,2013-08-20 09:59:00,
2013-08-20 06:29:00,58.9,55.7,30.01,North,0,0.0,0.0,89,0.00,FEW,,0.00,WeatherDisplay:10.37,2013-08-20 10:29:00,
2013-08-20 06:59:00,58.8,55.6,30.02,North,0,0.0,0.0,89,0.00,FEW,,0.00,WeatherDisplay:10.37,2013-08-20 10:59:00,
2013-08-20 07:29:00,59.5,56.6,30.03,North,0,0.0,0.0,90,0.00,SCT,,0.00,WeatherDisplay:10.37,2013-08-20 11:29:00,
2013-08-20 07:59:00,61.1,58.5,30.04,North,0,0.0,0.0,91,0.00,SCT,,0.00,WeatherDisplay:10.37,2013-08-20 11:59:00,
2013-08-20 08:29:00,64.0,60.7,30.04,North,0,0.0,2.0,89,0.00,SCT,,0.00,WeatherDisplay:10.37,2013-08-20 12:29:00,
2013-08-20 08:59:00,69.4,61.9,30.05,North,0,0.0,2.0,77,0.00,SCT,,0.00,WeatherDisplay:10.37,2013-08-20 12:59:00,
2013-08-20 09:29:00,72.5,61.7,30.05,NNW,328,0.0,4.0,69,0.00,FEW,,0.00,WeatherDisplay:10.37,2013-08-20 13:29:00,
2013-08-20 09:59:00,74.6,62.1,30.04,NW,316,1.0,6.0,65,0.00,FEW,,0.00,WeatherDisplay:10.37,2013-08-20 13:59:00,
2013-08-20 10:08:00,74.7,62.1,30.04,NW,304,0.0,0.0,65,0.00,SCT,,0.00,WeatherDisplay:10.37,2013-08-20 14:08:00,
2013-08-20 10:29:00,75.7,62.6,30.04,WSW,245,1.0,6.0,64,0.00,SCT,,0.00,WeatherDisplay:10.37,2013-08-20 14:29:00,
2013-08-20 10:59:00,77.1,63.0,30.05,WSW,247,0.0,5.0,62,0.00,SCT,,0.00,WeatherDisplay:10.37,2013-08-20 14:59:00,
2013-08-20 11:29:00,78.2,63.6,30.04,WSW,247,0.0,3.0,61,0.00,SCT,,0.00,WeatherDisplay:10.37,2013-08-20 15:29:00,
2013-08-20 11:59:00,79.4,63.8,30.04,WSW,247,0.0,4.0,59,0.00,SCT,,0.00,WeatherDisplay:10.37,2013-08-20 15:59:00,
2013-08-20 12:29:00,80.5,63.8,30.04,WSW,247,1.0,6.0,57,0.00,FEW,,0.00,WeatherDisplay:10.37,2013-08-20 16:29:00,
2013-08-20 12:59:00,80.3,62.1,30.04,NW,325,1.0,7.0,54,0.00,FEW,,0.00,WeatherDisplay:10.37,2013-08-20 16:59:00,
2013-08-20 13:29:00,81.1,61.9,30.03,NW,305,1.0,6.0,52,0.00,FEW,,0.00,WeatherDisplay:10.37,2013-08-20 17:29:00,
2013-08-20 13:59:00,81.4,61.5,30.03,NNW,345,0.0,6.0,51,0.00,FEW,,0.00,WeatherDisplay:10.37,2013-08-20 17:59:00,
2013-08-20 14:29:00,81.7,61.2,30.03,NW,308,1.0,5.0,50,0.00,SCT,,0.00,WeatherDisplay:10.37,2013-08-20 18:29:00,
2013-08-20 14:59:00,80.5,61.8,30.02,NW,307,0.0,3.0,53,0.00,SCT,,0.00,WeatherDisplay:10.37,2013-08-20 18:59:00,
2013-08-20 15:29:00,81.7,60.6,30.02,NNW,328,1.0,6.0,49,0.00,SCT,,0.00,WeatherDisplay:10.37,2013-08-20 19:29:00,
2013-08-20 15:59:00,81.6,61.1,30.01,North,357,0.0,8.0,50,0.00,SCT,,0.00,WeatherDisplay:10.37,2013-08-20 19:59:00,
2013-08-20 16:29:00,82.0,59.8,30.00,North,0,0.0,4.0,47,0.00,SCT,,0.00,WeatherDisplay:10.37,2013-08-20 20:29:00,
2013-08-20 16:59:00,81.9,59.6,30.01,NW,316,0.0,4.0,47,0.00,SCT,,0.00,WeatherDisplay:10.37,2013-08-20 20:59:00,
2013-08-20 17:29:00,82.0,60.4,30.00,NW,316,0.0,3.0,48,0.00,BKN,,0.00,WeatherDisplay:10.37,2013-08-20 21:29:00,
2013-08-20 17:59:00,80.9,62.2,30.00,NW,316,0.0,3.0,53,0.00,BKN,,0.00,WeatherDisplay:10.37,2013-08-20 21:59:00,
2013-08-20 18:29:00,80.7,62.0,30.00,NW,316,0.0,0.0,53,0.00,SCT,,0.00,WeatherDisplay:10.37,2013-08-20 22:29:00,
2013-08-20 18:59:00,79.8,61.7,30.00,NW,316,0.0,0.0,54,0.00,SCT,,0.00,WeatherDisplay:10.37,2013-08-20 22:59:00,
2013-08-20 19:29:00,78.1,63.0,30.01,NW,316,0.0,0.0,60,0.00,CLR,,0.00,WeatherDisplay:10.37,2013-08-20 23:29:00,
2013-08-20 19:59:00,75.8,63.2,30.01,NW,316,0.0,0.0,65,0.00,CLR,,0.00,WeatherDisplay:10.37,2013-08-20 23:59:00,
2013-08-20 20:29:00,73.4,62.6,30.01,NW,316,0.0,0.0,69,0.00,CLR,,0.00,WeatherDisplay:10.37,2013-08-21 00:29:00,
2013-08-20 20:59:00,71.6,62.5,30.01,NW,316,0.0,0.0,73,0.00,CLR,,0.00,WeatherDisplay:10.37,2013-08-21 00:59:00,
2013-08-20 21:29:00,70.6,61.5,30.02,NW,316,0.0,0.0,73,0.00,FEW,,0.00,WeatherDisplay:10.37,2013-08-21 01:29:00,
2013-08-20 21:59:00,69.5,61.9,30.03,NW,316,0.0,0.0,77,0.00,FEW,,0.00,WeatherDisplay:10.37,2013-08-21 01:59:00,
2013-08-20 22:29:00,68.5,62.1,30.03,NW,316,0.0,0.0,80,0.00,CLR,,0.00,WeatherDisplay:10.37,2013-08-21 02:29:00,
2013-08-20 22:59:00,68.2,61.8,30.03,NW,316,0.0,0.0,80,0.00,CLR,,0.00,WeatherDisplay:10.37,2013-08-21 02:59:00,
2013-08-20 23:29:00,68.7,61.9,30.03,NW,316,0.0,0.0,79,0.00,CLR,,0.00,WeatherDisplay:10.37,2013-08-21 03:29:00,
2013-08-20 23:59:00,67.8,61.4,30.04,NW,316,0.0,0.0,80,0.00,CLR,,0.00,WeatherDisplay:10.37,2013-08-21 03:59:00,